sensor_id;sensor_type;location;lat;lon;timestamp;P1;durP1;ratioP1;P2;durP2;ratioP2
14306;SDS011;7237;49.500;11.400;2022-08-18T00:02:25;7.15;;;5.32;;
14306;SDS011;7237;49.500;11.400;2022-08-18T00:04:52;5.97;;;5.40;;
14306;SDS011;7237;49.500;11.400;2022-08-18T00:07:21;5.32;;;4.78;;
14306;SDS011;7237;49.500;11.400;2022-08-18T00:09:48;7.18;;;5.00;;
14306;SDS011;7237;49.500;11.400;2022-08-18T00:12:17;8.55;;;4.90;;
14306;SDS011;7237;49.500;11.400;2022-08-18T00:14:45;5.88;;;5.25;;
14306;SDS011;7237;49.500;11.400;2022-08-18T00:17:12;6.28;;;4.85;;
14306;SDS011;7237;49.500;11.400;2022-08-18T00:19:40;6.50;;;4.72;;
14306;SDS011;7237;49.500;11.400;2022-08-18T00:22:08;5.07;;;4.68;;
14306;SDS011;7237;49.500;11.400;2022-08-18T00:24:35;5.55;;;4.78;;
14306;SDS011;7237;49.500;11.400;2022-08-18T00:27:03;5.38;;;4.88;;
14306;SDS011;7237;49.500;11.400;2022-08-18T00:29:30;5.75;;;4.30;;
14306;SDS011;7237;49.500;11.400;2022-08-18T00:31:57;6.55;;;4.20;;
14306;SDS011;7237;49.500;11.400;2022-08-18T00:34:24;9.25;;;4.40;;
14306;SDS011;7237;49.500;11.400;2022-08-18T00:36:52;6.95;;;4.47;;
14306;SDS011;7237;49.500;11.400;2022-08-18T00:39:19;5.07;;;4.20;;
14306;SDS011;7237;49.500;11.400;2022-08-18T00:41:46;6.85;;;4.22;;
14306;SDS011;7237;49.500;11.400;2022-08-18T00:44:14;6.50;;;4.43;;
14306;SDS011;7237;49.500;11.400;2022-08-18T00:46:41;10.25;;;4.32;;
14306;SDS011;7237;49.500;11.400;2022-08-18T00:49:08;9.65;;;4.72;;
14306;SDS011;7237;49.500;11.400;2022-08-18T00:51:36;7.63;;;4.38;;
14306;SDS011;7237;49.500;11.400;2022-08-18T00:54:08;7.30;;;4.25;;
14306;SDS011;7237;49.500;11.400;2022-08-18T00:56:37;7.50;;;4.13;;
14306;SDS011;7237;49.500;11.400;2022-08-18T00:59:06;8.82;;;4.35;;
14306;SDS011;7237;49.500;11.400;2022-08-18T01:01:34;8.05;;;4.35;;
14306;SDS011;7237;49.500;11.400;2022-08-18T01:04:04;4.40;;;3.63;;
14306;SDS011;7237;49.500;11.400;2022-08-18T01:06:33;7.82;;;3.80;;
14306;SDS011;7237;49.500;11.400;2022-08-18T01:09:03;5.07;;;3.40;;
14306;SDS011;7237;49.500;11.400;2022-08-18T01:11:31;9.80;;;4.55;;
14306;SDS011;7237;49.500;11.400;2022-08-18T01:13:59;8.02;;;3.67;;
14306;SDS011;7237;49.500;11.400;2022-08-18T01:16:26;6.40;;;3.17;;
14306;SDS011;7237;49.500;11.400;2022-08-18T01:19:11;7.10;;;3.65;;
14306;SDS011;7237;49.500;11.400;2022-08-18T01:21:58;4.82;;;3.60;;
14306;SDS011;7237;49.500;11.400;2022-08-18T01:24:30;9.07;;;3.42;;
14306;SDS011;7237;49.500;11.400;2022-08-18T01:27:17;5.18;;;3.42;;
14306;SDS011;7237;49.500;11.400;2022-08-18T01:29:44;7.07;;;3.50;;
14306;SDS011;7237;49.500;11.400;2022-08-18T01:32:13;7.22;;;3.53;;
14306;SDS011;7237;49.500;11.400;2022-08-18T01:34:43;6.53;;;3.65;;
14306;SDS011;7237;49.500;11.400;2022-08-18T01:37:11;5.38;;;3.47;;
14306;SDS011;7237;49.500;11.400;2022-08-18T01:39:40;6.80;;;4.10;;
14306;SDS011;7237;49.500;11.400;2022-08-18T01:42:07;6.45;;;4.35;;
14306;SDS011;7237;49.500;11.400;2022-08-18T01:44:34;6.20;;;4.43;;
14306;SDS011;7237;49.500;11.400;2022-08-18T01:47:01;7.65;;;4.32;;
14306;SDS011;7237;49.500;11.400;2022-08-18T01:49:28;5.68;;;4.60;;
14306;SDS011;7237;49.500;11.400;2022-08-18T01:51:56;6.45;;;4.20;;
14306;SDS011;7237;49.500;11.400;2022-08-18T01:54:23;5.43;;;4.40;;
14306;SDS011;7237;49.500;11.400;2022-08-18T01:56:55;9.77;;;4.38;;
14306;SDS011;7237;49.500;11.400;2022-08-18T01:59:22;6.45;;;4.40;;
14306;SDS011;7237;49.500;11.400;2022-08-18T02:01:49;5.55;;;4.20;;
14306;SDS011;7237;49.500;11.400;2022-08-18T02:04:17;8.55;;;4.18;;
14306;SDS011;7237;49.500;11.400;2022-08-18T02:06:44;7.07;;;4.97;;
14306;SDS011;7237;49.500;11.400;2022-08-18T02:09:11;6.85;;;4.70;;
14306;SDS011;7237;49.500;11.400;2022-08-18T02:11:38;5.75;;;5.20;;
14306;SDS011;7237;49.500;11.400;2022-08-18T02:14:06;9.05;;;5.40;;
14306;SDS011;7237;49.500;11.400;2022-08-18T02:16:34;9.65;;;4.70;;
14306;SDS011;7237;49.500;11.400;2022-08-18T02:19:01;6.25;;;5.00;;
14306;SDS011;7237;49.500;11.400;2022-08-18T02:21:28;7.22;;;5.07;;
14306;SDS011;7237;49.500;11.400;2022-08-18T02:23:55;6.85;;;4.63;;
14306;SDS011;7237;49.500;11.400;2022-08-18T02:26:22;12.00;;;5.38;;
14306;SDS011;7237;49.500;11.400;2022-08-18T02:28:49;7.53;;;5.28;;
14306;SDS011;7237;49.500;11.400;2022-08-18T02:31:18;9.88;;;5.93;;
14306;SDS011;7237;49.500;11.400;2022-08-18T02:33:46;7.90;;;5.70;;
14306;SDS011;7237;49.500;11.400;2022-08-18T02:36:13;6.80;;;5.68;;
14306;SDS011;7237;49.500;11.400;2022-08-18T02:38:40;7.65;;;5.93;;
14306;SDS011;7237;49.500;11.400;2022-08-18T02:41:09;7.10;;;6.00;;
14306;SDS011;7237;49.500;11.400;2022-08-18T02:43:37;8.48;;;6.18;;
14306;SDS011;7237;49.500;11.400;2022-08-18T02:46:05;7.15;;;6.45;;
14306;SDS011;7237;49.500;11.400;2022-08-18T02:48:34;7.70;;;5.78;;
14306;SDS011;7237;49.500;11.400;2022-08-18T02:51:01;10.30;;;6.65;;
14306;SDS011;7237;49.500;11.400;2022-08-18T02:53:28;8.90;;;7.22;;
14306;SDS011;7237;49.500;11.400;2022-08-18T02:56:03;7.55;;;6.88;;
14306;SDS011;7237;49.500;11.400;2022-08-18T02:58:33;7.75;;;6.93;;
14306;SDS011;7237;49.500;11.400;2022-08-18T03:01:00;11.20;;;7.30;;
14306;SDS011;7237;49.500;11.400;2022-08-18T03:03:27;7.40;;;6.75;;
14306;SDS011;7237;49.500;11.400;2022-08-18T03:05:57;13.55;;;6.97;;
14306;SDS011;7237;49.500;11.400;2022-08-18T03:08:24;7.43;;;6.82;;
14306;SDS011;7237;49.500;11.400;2022-08-18T03:10:52;8.60;;;7.25;;
14306;SDS011;7237;49.500;11.400;2022-08-18T03:13:19;7.85;;;7.05;;
14306;SDS011;7237;49.500;11.400;2022-08-18T03:15:46;7.32;;;6.60;;
14306;SDS011;7237;49.500;11.400;2022-08-18T03:18:13;9.77;;;7.05;;
14306;SDS011;7237;49.500;11.400;2022-08-18T03:20:40;9.02;;;7.07;;
14306;SDS011;7237;49.500;11.400;2022-08-18T03:23:10;8.38;;;7.57;;
14306;SDS011;7237;49.500;11.400;2022-08-18T03:25:41;9.50;;;7.43;;
14306;SDS011;7237;49.500;11.400;2022-08-18T03:28:08;9.52;;;6.93;;
14306;SDS011;7237;49.500;11.400;2022-08-18T03:30:36;8.05;;;7.38;;
14306;SDS011;7237;49.500;11.400;2022-08-18T03:33:03;10.27;;;7.45;;
14306;SDS011;7237;49.500;11.400;2022-08-18T03:35:30;8.07;;;7.28;;
14306;SDS011;7237;49.500;11.400;2022-08-18T03:37:58;7.80;;;7.07;;
14306;SDS011;7237;49.500;11.400;2022-08-18T03:40:27;8.00;;;7.15;;
14306;SDS011;7237;49.500;11.400;2022-08-18T03:42:54;8.05;;;7.00;;
14306;SDS011;7237;49.500;11.400;2022-08-18T03:45:21;8.02;;;7.20;;
14306;SDS011;7237;49.500;11.400;2022-08-18T03:47:51;9.32;;;7.20;;
14306;SDS011;7237;49.500;11.400;2022-08-18T03:50:18;7.55;;;6.93;;
14306;SDS011;7237;49.500;11.400;2022-08-18T03:52:45;7.78;;;6.93;;
14306;SDS011;7237;49.500;11.400;2022-08-18T03:55:13;8.60;;;7.10;;
14306;SDS011;7237;49.500;11.400;2022-08-18T03:57:41;8.18;;;7.38;;
14306;SDS011;7237;49.500;11.400;2022-08-18T04:00:09;8.52;;;7.63;;
14306;SDS011;7237;49.500;11.400;2022-08-18T04:02:37;9.90;;;7.28;;
14306;SDS011;7237;49.500;11.400;2022-08-18T04:05:04;8.13;;;7.40;;
14306;SDS011;7237;49.500;11.400;2022-08-18T04:07:32;8.18;;;7.38;;
14306;SDS011;7237;49.500;11.400;2022-08-18T04:09:59;11.93;;;7.60;;
14306;SDS011;7237;49.500;11.400;2022-08-18T04:12:26;10.88;;;8.13;;
14306;SDS011;7237;49.500;11.400;2022-08-18T04:14:55;9.25;;;8.27;;
14306;SDS011;7237;49.500;11.400;2022-08-18T04:17:22;9.38;;;7.53;;
14306;SDS011;7237;49.500;11.400;2022-08-18T04:19:50;8.90;;;7.88;;
14306;SDS011;7237;49.500;11.400;2022-08-18T04:22:17;8.43;;;7.40;;
14306;SDS011;7237;49.500;11.400;2022-08-18T04:24:44;7.57;;;6.78;;
14306;SDS011;7237;49.500;11.400;2022-08-18T04:27:12;8.57;;;7.38;;
14306;SDS011;7237;49.500;11.400;2022-08-18T04:29:39;7.53;;;6.70;;
14306;SDS011;7237;49.500;11.400;2022-08-18T04:32:07;7.65;;;6.93;;
14306;SDS011;7237;49.500;11.400;2022-08-18T04:34:34;9.90;;;7.53;;
14306;SDS011;7237;49.500;11.400;2022-08-18T04:37:02;7.57;;;6.78;;
14306;SDS011;7237;49.500;11.400;2022-08-18T04:39:30;8.68;;;6.70;;
14306;SDS011;7237;49.500;11.400;2022-08-18T04:41:57;7.90;;;6.60;;
14306;SDS011;7237;49.500;11.400;2022-08-18T04:44:25;9.80;;;6.80;;
14306;SDS011;7237;49.500;11.400;2022-08-18T04:46:52;7.22;;;6.43;;
14306;SDS011;7237;49.500;11.400;2022-08-18T04:49:22;8.68;;;6.88;;
14306;SDS011;7237;49.500;11.400;2022-08-18T04:51:49;7.93;;;7.20;;
14306;SDS011;7237;49.500;11.400;2022-08-18T04:54:30;8.07;;;7.38;;
14306;SDS011;7237;49.500;11.400;2022-08-18T04:57:06;7.35;;;6.70;;
14306;SDS011;7237;49.500;11.400;2022-08-18T04:59:33;8.25;;;7.43;;
14306;SDS011;7237;49.500;11.400;2022-08-18T05:02:01;7.38;;;6.85;;
14306;SDS011;7237;49.500;11.400;2022-08-18T05:04:31;8.25;;;7.55;;
14306;SDS011;7237;49.500;11.400;2022-08-18T05:06:58;7.53;;;6.82;;
14306;SDS011;7237;49.500;11.400;2022-08-18T05:09:26;8.13;;;7.43;;
14306;SDS011;7237;49.500;11.400;2022-08-18T05:11:53;8.25;;;7.15;;
14306;SDS011;7237;49.500;11.400;2022-08-18T05:14:20;11.25;;;7.88;;
14306;SDS011;7237;49.500;11.400;2022-08-18T05:16:47;8.00;;;7.20;;
14306;SDS011;7237;49.500;11.400;2022-08-18T05:19:16;11.25;;;7.28;;
14306;SDS011;7237;49.500;11.400;2022-08-18T05:21:47;9.38;;;6.95;;
14306;SDS011;7237;49.500;11.400;2022-08-18T05:24:14;7.68;;;6.90;;
14306;SDS011;7237;49.500;11.400;2022-08-18T05:26:41;9.02;;;7.78;;
14306;SDS011;7237;49.500;11.400;2022-08-18T05:29:08;8.07;;;7.28;;
14306;SDS011;7237;49.500;11.400;2022-08-18T05:31:35;8.82;;;7.03;;
14306;SDS011;7237;49.500;11.400;2022-08-18T05:34:02;8.55;;;7.55;;
14306;SDS011;7237;49.500;11.400;2022-08-18T05:36:42;9.90;;;7.13;;
14306;SDS011;7237;49.500;11.400;2022-08-18T05:39:14;7.82;;;7.15;;
14306;SDS011;7237;49.500;11.400;2022-08-18T05:41:48;9.15;;;7.53;;
14306;SDS011;7237;49.500;11.400;2022-08-18T05:44:17;8.07;;;7.28;;
14306;SDS011;7237;49.500;11.400;2022-08-18T05:46:45;13.10;;;7.47;;
14306;SDS011;7237;49.500;11.400;2022-08-18T05:49:13;9.20;;;8.30;;
14306;SDS011;7237;49.500;11.400;2022-08-18T05:51:41;8.43;;;7.60;;
14306;SDS011;7237;49.500;11.400;2022-08-18T05:54:09;8.95;;;7.22;;
14306;SDS011;7237;49.500;11.400;2022-08-18T05:56:57;8.02;;;7.22;;
14306;SDS011;7237;49.500;11.400;2022-08-18T05:59:27;8.15;;;6.57;;
14306;SDS011;7237;49.500;11.400;2022-08-18T06:01:55;8.35;;;6.80;;
14306;SDS011;7237;49.500;11.400;2022-08-18T06:04:29;8.55;;;6.63;;
14306;SDS011;7237;49.500;11.400;2022-08-18T06:07:00;7.60;;;6.38;;
14306;SDS011;7237;49.500;11.400;2022-08-18T06:09:31;8.15;;;6.30;;
14306;SDS011;7237;49.500;11.400;2022-08-18T06:12:03;6.55;;;5.95;;
14306;SDS011;7237;49.500;11.400;2022-08-18T06:14:35;6.35;;;5.75;;
14306;SDS011;7237;49.500;11.400;2022-08-18T06:17:04;6.88;;;6.18;;
14306;SDS011;7237;49.500;11.400;2022-08-18T06:19:39;7.32;;;6.65;;
14306;SDS011;7237;49.500;11.400;2022-08-18T06:22:12;6.90;;;6.20;;
14306;SDS011;7237;49.500;11.400;2022-08-18T06:24:43;6.32;;;5.72;;
14306;SDS011;7237;49.500;11.400;2022-08-18T06:27:18;6.35;;;5.75;;
14306;SDS011;7237;49.500;11.400;2022-08-18T06:29:52;7.13;;;6.43;;
14306;SDS011;7237;49.500;11.400;2022-08-18T06:32:32;9.63;;;7.00;;
14306;SDS011;7237;49.500;11.400;2022-08-18T06:35:03;10.52;;;6.25;;
14306;SDS011;7237;49.500;11.400;2022-08-18T06:37:33;7.10;;;6.40;;
14306;SDS011;7237;49.500;11.400;2022-08-18T06:40:20;6.88;;;6.28;;
14306;SDS011;7237;49.500;11.400;2022-08-18T06:42:49;8.23;;;6.85;;
14306;SDS011;7237;49.500;11.400;2022-08-18T06:45:16;6.90;;;6.20;;
14306;SDS011;7237;49.500;11.400;2022-08-18T06:47:45;13.65;;;7.30;;
14306;SDS011;7237;49.500;11.400;2022-08-18T06:50:17;6.72;;;6.13;;
14306;SDS011;7237;49.500;11.400;2022-08-18T06:52:51;7.68;;;6.97;;
14306;SDS011;7237;49.500;11.400;2022-08-18T06:55:30;6.93;;;6.25;;
14306;SDS011;7237;49.500;11.400;2022-08-18T06:57:59;7.07;;;6.35;;
14306;SDS011;7237;49.500;11.400;2022-08-18T07:00:28;8.13;;;6.68;;
14306;SDS011;7237;49.500;11.400;2022-08-18T07:02:55;7.00;;;6.35;;
14306;SDS011;7237;49.500;11.400;2022-08-18T07:05:24;10.35;;;6.60;;
14306;SDS011;7237;49.500;11.400;2022-08-18T07:08:07;8.50;;;6.93;;
14306;SDS011;7237;49.500;11.400;2022-08-18T07:10:36;7.18;;;6.60;;
14306;SDS011;7237;49.500;11.400;2022-08-18T07:13:12;7.80;;;7.00;;
14306;SDS011;7237;49.500;11.400;2022-08-18T07:15:40;8.05;;;7.28;;
14306;SDS011;7237;49.500;11.400;2022-08-18T07:18:08;6.95;;;6.28;;
14306;SDS011;7237;49.500;11.400;2022-08-18T07:20:40;7.82;;;7.20;;
14306;SDS011;7237;49.500;11.400;2022-08-18T07:23:07;8.60;;;6.80;;
14306;SDS011;7237;49.500;11.400;2022-08-18T07:25:37;7.93;;;7.13;;
14306;SDS011;7237;49.500;11.400;2022-08-18T07:28:04;7.55;;;6.82;;
14306;SDS011;7237;49.500;11.400;2022-08-18T07:30:33;7.53;;;6.78;;
14306;SDS011;7237;49.500;11.400;2022-08-18T07:33:04;7.55;;;6.80;;
14306;SDS011;7237;49.500;11.400;2022-08-18T07:35:35;7.78;;;6.97;;
14306;SDS011;7237;49.500;11.400;2022-08-18T07:38:05;8.85;;;7.18;;
14306;SDS011;7237;49.500;11.400;2022-08-18T07:40:37;7.90;;;7.20;;
14306;SDS011;7237;49.500;11.400;2022-08-18T07:43:08;7.88;;;6.72;;
14306;SDS011;7237;49.500;11.400;2022-08-18T07:45:41;8.52;;;7.30;;
14306;SDS011;7237;49.500;11.400;2022-08-18T07:48:10;10.02;;;7.28;;
14306;SDS011;7237;49.500;11.400;2022-08-18T07:50:38;6.63;;;6.03;;
14306;SDS011;7237;49.500;11.400;2022-08-18T07:53:10;7.28;;;6.57;;
14306;SDS011;7237;49.500;11.400;2022-08-18T07:55:38;8.68;;;6.88;;
14306;SDS011;7237;49.500;11.400;2022-08-18T07:58:12;7.45;;;6.72;;
14306;SDS011;7237;49.500;11.400;2022-08-18T08:00:43;7.60;;;6.88;;
14306;SDS011;7237;49.500;11.400;2022-08-18T08:03:15;8.13;;;7.32;;
14306;SDS011;7237;49.500;11.400;2022-08-18T08:05:49;7.70;;;7.00;;
14306;SDS011;7237;49.500;11.400;2022-08-18T08:08:22;7.22;;;6.47;;
14306;SDS011;7237;49.500;11.400;2022-08-18T08:10:54;7.55;;;6.78;;
14306;SDS011;7237;49.500;11.400;2022-08-18T08:13:25;8.20;;;6.38;;
14306;SDS011;7237;49.500;11.400;2022-08-18T08:16:03;6.88;;;6.28;;
14306;SDS011;7237;49.500;11.400;2022-08-18T08:18:32;7.35;;;6.18;;
14306;SDS011;7237;49.500;11.400;2022-08-18T08:21:04;8.93;;;6.43;;
14306;SDS011;7237;49.500;11.400;2022-08-18T08:23:33;7.65;;;6.63;;
14306;SDS011;7237;49.500;11.400;2022-08-18T08:26:07;7.45;;;6.43;;
14306;SDS011;7237;49.500;11.400;2022-08-18T08:28:40;6.38;;;5.78;;
14306;SDS011;7237;49.500;11.400;2022-08-18T08:31:10;6.70;;;6.20;;
14306;SDS011;7237;49.500;11.400;2022-08-18T08:33:43;6.80;;;6.20;;
14306;SDS011;7237;49.500;11.400;2022-08-18T08:36:13;7.90;;;6.25;;
14306;SDS011;7237;49.500;11.400;2022-08-18T08:38:43;7.00;;;5.97;;
14306;SDS011;7237;49.500;11.400;2022-08-18T08:41:12;6.10;;;5.60;;
14306;SDS011;7237;49.500;11.400;2022-08-18T08:43:44;10.82;;;6.35;;
14306;SDS011;7237;49.500;11.400;2022-08-18T08:46:17;7.97;;;5.75;;
14306;SDS011;7237;49.500;11.400;2022-08-18T08:48:46;6.57;;;5.97;;
14306;SDS011;7237;49.500;11.400;2022-08-18T08:51:27;6.22;;;5.63;;
14306;SDS011;7237;49.500;11.400;2022-08-18T08:53:56;6.00;;;5.40;;
14306;SDS011;7237;49.500;11.400;2022-08-18T08:56:27;7.40;;;5.90;;
14306;SDS011;7237;49.500;11.400;2022-08-18T08:58:56;6.70;;;5.82;;
14306;SDS011;7237;49.500;11.400;2022-08-18T09:01:28;6.82;;;5.35;;
14306;SDS011;7237;49.500;11.400;2022-08-18T09:03:57;6.70;;;6.03;;
14306;SDS011;7237;49.500;11.400;2022-08-18T09:06:27;8.68;;;5.88;;
14306;SDS011;7237;49.500;11.400;2022-08-18T09:09:10;9.27;;;5.80;;
14306;SDS011;7237;49.500;11.400;2022-08-18T09:11:46;5.93;;;5.43;;
14306;SDS011;7237;49.500;11.400;2022-08-18T09:14:25;6.40;;;5.70;;
14306;SDS011;7237;49.500;11.400;2022-08-18T09:17:00;6.13;;;5.53;;
14306;SDS011;7237;49.500;11.400;2022-08-18T09:22:35;7.80;;;5.75;;
14306;SDS011;7237;49.500;11.400;2022-08-18T09:25:08;6.75;;;5.53;;
14306;SDS011;7237;49.500;11.400;2022-08-18T09:27:37;7.35;;;6.03;;
14306;SDS011;7237;49.500;11.400;2022-08-18T09:30:06;6.22;;;5.55;;
14306;SDS011;7237;49.500;11.400;2022-08-18T09:35:26;6.53;;;5.93;;
14306;SDS011;7237;49.500;11.400;2022-08-18T09:37:57;6.25;;;5.65;;
14306;SDS011;7237;49.500;11.400;2022-08-18T09:40:46;6.38;;;5.45;;
14306;SDS011;7237;49.500;11.400;2022-08-18T09:43:33;6.18;;;5.55;;
14306;SDS011;7237;49.500;11.400;2022-08-18T09:46:04;6.78;;;5.63;;
14306;SDS011;7237;49.500;11.400;2022-08-18T09:48:32;5.80;;;5.20;;
14306;SDS011;7237;49.500;11.400;2022-08-18T09:53:53;6.75;;;5.45;;
14306;SDS011;7237;49.500;11.400;2022-08-18T09:59:02;8.50;;;5.47;;
14306;SDS011;7237;49.500;11.400;2022-08-18T10:01:32;6.32;;;5.57;;
14306;SDS011;7237;49.500;11.400;2022-08-18T10:04:16;6.32;;;5.10;;
14306;SDS011;7237;49.500;11.400;2022-08-18T10:06:45;8.98;;;4.90;;
14306;SDS011;7237;49.500;11.400;2022-08-18T10:09:20;5.60;;;5.10;;
14306;SDS011;7237;49.500;11.400;2022-08-18T10:17:25;6.22;;;5.07;;
14306;SDS011;7237;49.500;11.400;2022-08-18T10:19:58;6.53;;;5.45;;
14306;SDS011;7237;49.500;11.400;2022-08-18T10:22:34;5.30;;;4.70;;
14306;SDS011;7237;49.500;11.400;2022-08-18T10:25:03;7.15;;;5.45;;
14306;SDS011;7237;49.500;11.400;2022-08-18T10:27:35;6.00;;;5.43;;
14306;SDS011;7237;49.500;11.400;2022-08-18T10:30:04;5.60;;;5.10;;
14306;SDS011;7237;49.500;11.400;2022-08-18T10:32:36;6.43;;;5.10;;
14306;SDS011;7237;49.500;11.400;2022-08-18T10:35:05;6.00;;;5.13;;
14306;SDS011;7237;49.500;11.400;2022-08-18T10:37:51;5.60;;;4.53;;
14306;SDS011;7237;49.500;11.400;2022-08-18T10:40:20;5.85;;;5.00;;
14306;SDS011;7237;49.500;11.400;2022-08-18T10:42:49;5.82;;;5.30;;
14306;SDS011;7237;49.500;11.400;2022-08-18T10:45:18;5.78;;;5.28;;
14306;SDS011;7237;49.500;11.400;2022-08-18T10:47:55;6.07;;;5.30;;
14306;SDS011;7237;49.500;11.400;2022-08-18T10:50:24;5.78;;;5.10;;
14306;SDS011;7237;49.500;11.400;2022-08-18T10:52:56;5.40;;;4.90;;
14306;SDS011;7237;49.500;11.400;2022-08-18T10:55:35;6.00;;;5.50;;
14306;SDS011;7237;49.500;11.400;2022-08-18T10:58:11;5.93;;;5.15;;
14306;SDS011;7237;49.500;11.400;2022-08-18T11:00:47;5.88;;;4.90;;
14306;SDS011;7237;49.500;11.400;2022-08-18T11:03:19;7.50;;;5.50;;
14306;SDS011;7237;49.500;11.400;2022-08-18T11:05:59;5.63;;;5.07;;
14306;SDS011;7237;49.500;11.400;2022-08-18T11:08:26;5.75;;;5.20;;
14306;SDS011;7237;49.500;11.400;2022-08-18T11:10:54;6.18;;;5.57;;
14306;SDS011;7237;49.500;11.400;2022-08-18T11:13:22;5.85;;;5.10;;
14306;SDS011;7237;49.500;11.400;2022-08-18T11:15:56;8.13;;;5.28;;
14306;SDS011;7237;49.500;11.400;2022-08-18T11:18:31;14.82;;;6.35;;
14306;SDS011;7237;49.500;11.400;2022-08-18T11:24:00;5.85;;;5.25;;
14306;SDS011;7237;49.500;11.400;2022-08-18T11:26:29;5.15;;;4.50;;
14306;SDS011;7237;49.500;11.400;2022-08-18T11:28:58;6.47;;;5.18;;
14306;SDS011;7237;49.500;11.400;2022-08-18T11:31:25;6.88;;;5.35;;
14306;SDS011;7237;49.500;11.400;2022-08-18T11:33:52;6.57;;;5.28;;
14306;SDS011;7237;49.500;11.400;2022-08-18T11:36:27;6.93;;;5.00;;
14306;SDS011;7237;49.500;11.400;2022-08-18T11:38:55;7.32;;;5.13;;
14306;SDS011;7237;49.500;11.400;2022-08-18T11:41:24;5.13;;;4.65;;
14306;SDS011;7237;49.500;11.400;2022-08-18T11:43:55;5.53;;;4.72;;
14306;SDS011;7237;49.500;11.400;2022-08-18T11:46:26;5.70;;;5.20;;
14306;SDS011;7237;49.500;11.400;2022-08-18T11:48:54;5.88;;;4.68;;
14306;SDS011;7237;49.500;11.400;2022-08-18T11:51:21;6.22;;;4.90;;
14306;SDS011;7237;49.500;11.400;2022-08-18T11:53:50;4.80;;;3.95;;
14306;SDS011;7237;49.500;11.400;2022-08-18T11:56:21;6.85;;;5.03;;
14306;SDS011;7237;49.500;11.400;2022-08-18T11:58:50;7.78;;;4.75;;
14306;SDS011;7237;49.500;11.400;2022-08-18T12:01:30;5.82;;;4.63;;
14306;SDS011;7237;49.500;11.400;2022-08-18T12:03:58;5.85;;;4.90;;
14306;SDS011;7237;49.500;11.400;2022-08-18T12:06:32;8.95;;;4.78;;
14306;SDS011;7237;49.500;11.400;2022-08-18T12:09:00;6.53;;;4.82;;
14306;SDS011;7237;49.500;11.400;2022-08-18T12:11:29;4.72;;;4.22;;
14306;SDS011;7237;49.500;11.400;2022-08-18T12:13:58;4.85;;;4.35;;
14306;SDS011;7237;49.500;11.400;2022-08-18T12:16:37;7.50;;;4.70;;
14306;SDS011;7237;49.500;11.400;2022-08-18T12:19:05;4.47;;;4.05;;
14306;SDS011;7237;49.500;11.400;2022-08-18T12:21:35;6.05;;;4.80;;
14306;SDS011;7237;49.500;11.400;2022-08-18T12:24:03;6.43;;;5.18;;
14306;SDS011;7237;49.500;11.400;2022-08-18T12:26:30;4.78;;;4.38;;
14306;SDS011;7237;49.500;11.400;2022-08-18T12:28:58;6.40;;;4.47;;
14306;SDS011;7237;49.500;11.400;2022-08-18T12:31:25;5.13;;;4.60;;
14306;SDS011;7237;49.500;11.400;2022-08-18T12:33:53;4.80;;;4.40;;
14306;SDS011;7237;49.500;11.400;2022-08-18T12:36:28;5.10;;;4.60;;
14306;SDS011;7237;49.500;11.400;2022-08-18T12:38:55;6.22;;;4.40;;
14306;SDS011;7237;49.500;11.400;2022-08-18T12:41:22;4.88;;;4.47;;
14306;SDS011;7237;49.500;11.400;2022-08-18T12:43:49;6.03;;;4.53;;
14306;SDS011;7237;49.500;11.400;2022-08-18T12:46:17;5.18;;;4.50;;
14306;SDS011;7237;49.500;11.400;2022-08-18T12:48:44;5.15;;;4.35;;
14306;SDS011;7237;49.500;11.400;2022-08-18T12:51:13;7.90;;;4.68;;
14306;SDS011;7237;49.500;11.400;2022-08-18T12:53:40;4.50;;;4.20;;
14306;SDS011;7237;49.500;11.400;2022-08-18T12:56:16;4.72;;;4.32;;
14306;SDS011;7237;49.500;11.400;2022-08-18T12:58:43;4.85;;;4.38;;
14306;SDS011;7237;49.500;11.400;2022-08-18T13:01:10;5.43;;;4.32;;
14306;SDS011;7237;49.500;11.400;2022-08-18T13:03:37;5.45;;;4.28;;
14306;SDS011;7237;49.500;11.400;2022-08-18T13:06:05;7.22;;;4.45;;
14306;SDS011;7237;49.500;11.400;2022-08-18T13:08:33;4.63;;;4.25;;
14306;SDS011;7237;49.500;11.400;2022-08-18T13:11:00;5.20;;;4.70;;
14306;SDS011;7237;49.500;11.400;2022-08-18T13:13:29;5.90;;;4.45;;
14306;SDS011;7237;49.500;11.400;2022-08-18T13:15:56;5.57;;;4.50;;
14306;SDS011;7237;49.500;11.400;2022-08-18T13:18:23;4.78;;;4.30;;
14306;SDS011;7237;49.500;11.400;2022-08-18T13:20:50;6.70;;;4.72;;
14306;SDS011;7237;49.500;11.400;2022-08-18T13:23:17;6.22;;;5.10;;
14306;SDS011;7237;49.500;11.400;2022-08-18T13:25:46;5.80;;;4.53;;
14306;SDS011;7237;49.500;11.400;2022-08-18T13:28:13;4.88;;;4.47;;
14306;SDS011;7237;49.500;11.400;2022-08-18T13:30:40;8.98;;;4.45;;
14306;SDS011;7237;49.500;11.400;2022-08-18T13:33:07;5.50;;;5.05;;
14306;SDS011;7237;49.500;11.400;2022-08-18T13:35:34;6.65;;;5.03;;
14306;SDS011;7237;49.500;11.400;2022-08-18T13:38:01;5.05;;;4.53;;
14306;SDS011;7237;49.500;11.400;2022-08-18T13:40:29;5.10;;;4.50;;
14306;SDS011;7237;49.500;11.400;2022-08-18T13:42:58;5.05;;;4.38;;
14306;SDS011;7237;49.500;11.400;2022-08-18T13:45:25;5.00;;;4.32;;
14306;SDS011;7237;49.500;11.400;2022-08-18T13:47:53;5.97;;;4.63;;
14306;SDS011;7237;49.500;11.400;2022-08-18T13:50:20;5.40;;;4.70;;
14306;SDS011;7237;49.500;11.400;2022-08-18T13:52:50;5.10;;;4.60;;
14306;SDS011;7237;49.500;11.400;2022-08-18T13:55:18;5.10;;;4.55;;
14306;SDS011;7237;49.500;11.400;2022-08-18T13:57:45;7.45;;;4.45;;
14306;SDS011;7237;49.500;11.400;2022-08-18T14:00:15;5.25;;;4.30;;
14306;SDS011;7237;49.500;11.400;2022-08-18T14:02:43;5.55;;;4.70;;
14306;SDS011;7237;49.500;11.400;2022-08-18T14:05:12;7.40;;;4.40;;
14306;SDS011;7237;49.500;11.400;2022-08-18T14:07:40;4.38;;;4.07;;
14306;SDS011;7237;49.500;11.400;2022-08-18T14:10:07;7.50;;;4.68;;
14306;SDS011;7237;49.500;11.400;2022-08-18T14:12:35;9.82;;;4.55;;
14306;SDS011;7237;49.500;11.400;2022-08-18T14:15:04;5.28;;;4.78;;
14306;SDS011;7237;49.500;11.400;2022-08-18T14:17:33;4.90;;;4.18;;
14306;SDS011;7237;49.500;11.400;2022-08-18T14:20:00;6.30;;;4.50;;
14306;SDS011;7237;49.500;11.400;2022-08-18T14:22:45;7.07;;;4.30;;
14306;SDS011;7237;49.500;11.400;2022-08-18T14:25:30;5.93;;;4.28;;
14306;SDS011;7237;49.500;11.400;2022-08-18T14:28:15;7.43;;;4.68;;
14306;SDS011;7237;49.500;11.400;2022-08-18T14:30:43;6.93;;;4.40;;
14306;SDS011;7237;49.500;11.400;2022-08-18T14:33:12;10.00;;;4.20;;
14306;SDS011;7237;49.500;11.400;2022-08-18T14:35:40;5.03;;;4.50;;
14306;SDS011;7237;49.500;11.400;2022-08-18T14:38:07;6.35;;;4.43;;
14306;SDS011;7237;49.500;11.400;2022-08-18T14:40:34;7.80;;;4.40;;
14306;SDS011;7237;49.500;11.400;2022-08-18T14:43:02;6.95;;;4.22;;
14306;SDS011;7237;49.500;11.400;2022-08-18T14:45:31;7.93;;;4.50;;
14306;SDS011;7237;49.500;11.400;2022-08-18T14:47:58;3.78;;;3.47;;
14306;SDS011;7237;49.500;11.400;2022-08-18T14:50:27;6.55;;;4.43;;
14306;SDS011;7237;49.500;11.400;2022-08-18T14:52:54;7.80;;;4.22;;
14306;SDS011;7237;49.500;11.400;2022-08-18T14:55:21;10.30;;;4.55;;
14306;SDS011;7237;49.500;11.400;2022-08-18T14:57:48;5.00;;;4.50;;
14306;SDS011;7237;49.500;11.400;2022-08-18T15:00:17;4.97;;;4.38;;
14306;SDS011;7237;49.500;11.400;2022-08-18T15:02:45;7.97;;;4.28;;
14306;SDS011;7237;49.500;11.400;2022-08-18T15:05:14;4.90;;;3.90;;
14306;SDS011;7237;49.500;11.400;2022-08-18T15:07:42;5.10;;;4.60;;
14306;SDS011;7237;49.500;11.400;2022-08-18T15:10:10;5.35;;;4.43;;
14306;SDS011;7237;49.500;11.400;2022-08-18T15:12:38;7.57;;;4.53;;
14306;SDS011;7237;49.500;11.400;2022-08-18T15:15:06;5.20;;;4.50;;
14306;SDS011;7237;49.500;11.400;2022-08-18T15:17:34;4.93;;;4.53;;
14306;SDS011;7237;49.500;11.400;2022-08-18T15:20:03;6.70;;;4.50;;
14306;SDS011;7237;49.500;11.400;2022-08-18T15:22:30;5.82;;;4.55;;
14306;SDS011;7237;49.500;11.400;2022-08-18T15:25:16;6.70;;;4.43;;